Everhartville, Pennsylvania
Current Conditions -  °F | °C
As of 11:56 PM on Tuesday 25 Nov 2014 (Local Time) from KCXY Reporting Station
Clear Clear  
Wind Chill: 35°   Ceiling: Unl
Heat Index: 39°   Visibility: 10mi
Dew Point: 32°   Wind: 6mph
Humidity: 76%   Direction: 250°WSW
Pressure: 30.18"   Gusts: NA
Location:  40.4932°N, 77.217°W
Report Text: KCXY 260456Z AUTO 25005KT 10SM CLR 04/00 A3018 RMK AO2 SLP223 T00390000 401500028
Loading
Personal Weather Stations






























Interactive Weather Map New forecast layout! Learn more

10-Day Weather Forecast

Advertisements
Track Severe Weather on mobile